sensor_id;sensor_type;location;lat;lon;timestamp;P1;durP1;ratioP1;P2;durP2;ratioP2
41436;SDS011;27178;49.460;10.850;2023-05-07T00:01:25;3.08;;;2.53;;
41436;SDS011;27178;49.460;10.850;2023-05-07T00:03:54;2.80;;;2.60;;
41436;SDS011;27178;49.460;10.850;2023-05-07T00:06:23;2.72;;;2.50;;
41436;SDS011;27178;49.460;10.850;2023-05-07T00:08:52;2.78;;;2.58;;
41436;SDS011;27178;49.460;10.850;2023-05-07T00:11:22;2.25;;;2.15;;
41436;SDS011;27178;49.460;10.850;2023-05-07T00:13:50;2.95;;;2.45;;
41436;SDS011;27178;49.460;10.850;2023-05-07T00:16:18;4.43;;;2.45;;
41436;SDS011;27178;49.460;10.850;2023-05-07T00:18:46;2.30;;;2.10;;
41436;SDS011;27178;49.460;10.850;2023-05-07T00:21:15;8.00;;;3.17;;
41436;SDS011;27178;49.460;10.850;2023-05-07T00:23:43;2.35;;;2.15;;
41436;SDS011;27178;49.460;10.850;2023-05-07T00:26:12;2.50;;;2.30;;
41436;SDS011;27178;49.460;10.850;2023-05-07T00:28:42;2.30;;;2.10;;
41436;SDS011;27178;49.460;10.850;2023-05-07T00:31:10;2.80;;;2.50;;
41436;SDS011;27178;49.460;10.850;2023-05-07T00:33:38;2.38;;;2.03;;
41436;SDS011;27178;49.460;10.850;2023-05-07T00:36:07;3.40;;;2.45;;
41436;SDS011;27178;49.460;10.850;2023-05-07T00:38:35;2.50;;;2.30;;
41436;SDS011;27178;49.460;10.850;2023-05-07T00:41:04;2.22;;;2.03;;
41436;SDS011;27178;49.460;10.850;2023-05-07T00:43:32;3.03;;;2.30;;
41436;SDS011;27178;49.460;10.850;2023-05-07T00:46:02;2.28;;;2.05;;
41436;SDS011;27178;49.460;10.850;2023-05-07T00:48:30;3.35;;;2.08;;
41436;SDS011;27178;49.460;10.850;2023-05-07T00:50:59;4.10;;;2.40;;
41436;SDS011;27178;49.460;10.850;2023-05-07T00:53:28;2.65;;;2.45;;
41436;SDS011;27178;49.460;10.850;2023-05-07T00:55:57;2.58;;;2.38;;
41436;SDS011;27178;49.460;10.850;2023-05-07T00:58:27;2.63;;;2.42;;
41436;SDS011;27178;49.460;10.850;2023-05-07T01:00:55;2.58;;;2.38;;
41436;SDS011;27178;49.460;10.850;2023-05-07T01:03:25;2.60;;;2.40;;
41436;SDS011;27178;49.460;10.850;2023-05-07T01:05:54;2.13;;;2.03;;
41436;SDS011;27178;49.460;10.850;2023-05-07T01:08:25;2.70;;;2.50;;
41436;SDS011;27178;49.460;10.850;2023-05-07T01:10:55;2.72;;;2.38;;
41436;SDS011;27178;49.460;10.850;2023-05-07T01:13:24;3.53;;;2.95;;
41436;SDS011;27178;49.460;10.850;2023-05-07T01:15:53;2.88;;;2.67;;
41436;SDS011;27178;49.460;10.850;2023-05-07T01:18:21;3.47;;;2.63;;
41436;SDS011;27178;49.460;10.850;2023-05-07T01:20:51;3.92;;;2.60;;
41436;SDS011;27178;49.460;10.850;2023-05-07T01:23:21;2.90;;;2.60;;
41436;SDS011;27178;49.460;10.850;2023-05-07T01:25:51;2.53;;;2.33;;
41436;SDS011;27178;49.460;10.850;2023-05-07T01:28:20;3.80;;;3.22;;
41436;SDS011;27178;49.460;10.850;2023-05-07T01:30:56;3.28;;;2.50;;
41436;SDS011;27178;49.460;10.850;2023-05-07T01:33:29;2.65;;;2.45;;
41436;SDS011;27178;49.460;10.850;2023-05-07T01:36:00;2.97;;;2.67;;
41436;SDS011;27178;49.460;10.850;2023-05-07T01:38:31;3.40;;;2.28;;
41436;SDS011;27178;49.460;10.850;2023-05-07T01:41:01;2.75;;;2.55;;
41436;SDS011;27178;49.460;10.850;2023-05-07T01:43:30;2.65;;;2.45;;
41436;SDS011;27178;49.460;10.850;2023-05-07T01:45:58;3.08;;;2.70;;
41436;SDS011;27178;49.460;10.850;2023-05-07T01:48:29;2.47;;;2.28;;
41436;SDS011;27178;49.460;10.850;2023-05-07T01:50:58;4.78;;;2.67;;
41436;SDS011;27178;49.460;10.850;2023-05-07T01:53:27;4.25;;;2.25;;
41436;SDS011;27178;49.460;10.850;2023-05-07T01:55:57;2.10;;;2.00;;
41436;SDS011;27178;49.460;10.850;2023-05-07T01:58:25;2.58;;;2.38;;
41436;SDS011;27178;49.460;10.850;2023-05-07T02:00:54;2.63;;;2.42;;
41436;SDS011;27178;49.460;10.850;2023-05-07T02:03:22;2.47;;;2.28;;
41436;SDS011;27178;49.460;10.850;2023-05-07T02:05:51;2.55;;;2.15;;
41436;SDS011;27178;49.460;10.850;2023-05-07T02:08:20;3.65;;;2.28;;
41436;SDS011;27178;49.460;10.850;2023-05-07T02:10:48;3.20;;;2.38;;
41436;SDS011;27178;49.460;10.850;2023-05-07T02:13:18;2.90;;;2.70;;
41436;SDS011;27178;49.460;10.850;2023-05-07T02:15:48;2.65;;;2.45;;
41436;SDS011;27178;49.460;10.850;2023-05-07T02:18:17;2.50;;;2.30;;
41436;SDS011;27178;49.460;10.850;2023-05-07T02:20:45;2.58;;;2.38;;
41436;SDS011;27178;49.460;10.850;2023-05-07T02:23:13;2.10;;;1.90;;
41436;SDS011;27178;49.460;10.850;2023-05-07T02:25:42;2.67;;;2.00;;
41436;SDS011;27178;49.460;10.850;2023-05-07T02:28:10;2.33;;;2.13;;
41436;SDS011;27178;49.460;10.850;2023-05-07T02:30:40;2.38;;;2.17;;
41436;SDS011;27178;49.460;10.850;2023-05-07T02:33:08;3.38;;;2.38;;
41436;SDS011;27178;49.460;10.850;2023-05-07T02:35:38;2.40;;;2.20;;
41436;SDS011;27178;49.460;10.850;2023-05-07T02:38:07;2.60;;;2.40;;
41436;SDS011;27178;49.460;10.850;2023-05-07T02:40:36;2.58;;;2.30;;
41436;SDS011;27178;49.460;10.850;2023-05-07T02:43:06;2.00;;;1.90;;
41436;SDS011;27178;49.460;10.850;2023-05-07T02:45:34;2.70;;;2.20;;
41436;SDS011;27178;49.460;10.850;2023-05-07T02:48:05;3.20;;;2.30;;
41436;SDS011;27178;49.460;10.850;2023-05-07T02:50:34;2.90;;;2.20;;
41436;SDS011;27178;49.460;10.850;2023-05-07T02:53:02;3.10;;;2.50;;
41436;SDS011;27178;49.460;10.850;2023-05-07T02:55:31;2.15;;;1.95;;
41436;SDS011;27178;49.460;10.850;2023-05-07T02:58:00;3.22;;;2.20;;
41436;SDS011;27178;49.460;10.850;2023-05-07T03:00:28;2.17;;;1.98;;
41436;SDS011;27178;49.460;10.850;2023-05-07T03:02:56;3.85;;;2.38;;
41436;SDS011;27178;49.460;10.850;2023-05-07T03:05:26;2.45;;;2.25;;
41436;SDS011;27178;49.460;10.850;2023-05-07T03:07:55;3.33;;;2.67;;
41436;SDS011;27178;49.460;10.850;2023-05-07T03:10:24;2.80;;;2.55;;
41436;SDS011;27178;49.460;10.850;2023-05-07T03:12:52;2.50;;;2.30;;
41436;SDS011;27178;49.460;10.850;2023-05-07T03:15:20;2.88;;;2.50;;
41436;SDS011;27178;49.460;10.850;2023-05-07T03:17:49;2.83;;;2.58;;
41436;SDS011;27178;49.460;10.850;2023-05-07T03:20:17;3.35;;;2.50;;
41436;SDS011;27178;49.460;10.850;2023-05-07T03:22:47;2.70;;;2.50;;
41436;SDS011;27178;49.460;10.850;2023-05-07T03:25:16;2.58;;;2.38;;
41436;SDS011;27178;49.460;10.850;2023-05-07T03:27:44;3.95;;;2.90;;
41436;SDS011;27178;49.460;10.850;2023-05-07T03:30:12;2.80;;;2.60;;
41436;SDS011;27178;49.460;10.850;2023-05-07T03:32:41;3.15;;;2.85;;
41436;SDS011;27178;49.460;10.850;2023-05-07T03:35:09;2.88;;;2.47;;
41436;SDS011;27178;49.460;10.850;2023-05-07T03:37:38;3.08;;;2.53;;
41436;SDS011;27178;49.460;10.850;2023-05-07T03:40:08;3.05;;;2.75;;
41436;SDS011;27178;49.460;10.850;2023-05-07T03:42:39;2.60;;;2.40;;
41436;SDS011;27178;49.460;10.850;2023-05-07T03:45:08;2.78;;;2.58;;
41436;SDS011;27178;49.460;10.850;2023-05-07T03:47:37;3.00;;;2.72;;
41436;SDS011;27178;49.460;10.850;2023-05-07T03:50:05;3.75;;;3.15;;
41436;SDS011;27178;49.460;10.850;2023-05-07T03:52:35;3.67;;;3.28;;
41436;SDS011;27178;49.460;10.850;2023-05-07T03:55:03;2.80;;;2.60;;
41436;SDS011;27178;49.460;10.850;2023-05-07T03:57:33;3.50;;;2.65;;
41436;SDS011;27178;49.460;10.850;2023-05-07T04:00:02;2.75;;;2.55;;
41436;SDS011;27178;49.460;10.850;2023-05-07T04:02:32;2.88;;;2.67;;
41436;SDS011;27178;49.460;10.850;2023-05-07T04:05:01;2.80;;;2.60;;
41436;SDS011;27178;49.460;10.850;2023-05-07T04:07:29;3.10;;;2.80;;
41436;SDS011;27178;49.460;10.850;2023-05-07T04:09:58;3.63;;;3.20;;
41436;SDS011;27178;49.460;10.850;2023-05-07T04:12:26;3.00;;;2.70;;
41436;SDS011;27178;49.460;10.850;2023-05-07T04:14:56;3.05;;;2.80;;
41436;SDS011;27178;49.460;10.850;2023-05-07T04:17:24;3.13;;;2.83;;
41436;SDS011;27178;49.460;10.850;2023-05-07T04:19:52;3.17;;;2.88;;
41436;SDS011;27178;49.460;10.850;2023-05-07T04:22:20;3.47;;;3.13;;
41436;SDS011;27178;49.460;10.850;2023-05-07T04:24:49;3.30;;;3.00;;
41436;SDS011;27178;49.460;10.850;2023-05-07T04:27:18;3.00;;;2.80;;
41436;SDS011;27178;49.460;10.850;2023-05-07T04:29:46;3.38;;;3.15;;
41436;SDS011;27178;49.460;10.850;2023-05-07T04:32:16;3.45;;;2.85;;
41436;SDS011;27178;49.460;10.850;2023-05-07T04:34:45;4.10;;;2.92;;
41436;SDS011;27178;49.460;10.850;2023-05-07T04:37:13;2.95;;;2.65;;
41436;SDS011;27178;49.460;10.850;2023-05-07T04:39:41;3.50;;;3.10;;
41436;SDS011;27178;49.460;10.850;2023-05-07T04:42:13;4.68;;;4.28;;
41436;SDS011;27178;49.460;10.850;2023-05-07T04:44:43;5.72;;;5.30;;
41436;SDS011;27178;49.460;10.850;2023-05-07T04:47:11;7.53;;;6.82;;
41436;SDS011;27178;49.460;10.850;2023-05-07T04:49:40;8.73;;;7.93;;
41436;SDS011;27178;49.460;10.850;2023-05-07T04:52:08;8.45;;;7.70;;
41436;SDS011;27178;49.460;10.850;2023-05-07T04:54:37;7.05;;;6.38;;
41436;SDS011;27178;49.460;10.850;2023-05-07T04:57:06;5.68;;;5.07;;
41436;SDS011;27178;49.460;10.850;2023-05-07T04:59:34;4.85;;;4.45;;
41436;SDS011;27178;49.460;10.850;2023-05-07T05:02:02;5.13;;;4.63;;
41436;SDS011;27178;49.460;10.850;2023-05-07T05:04:31;4.72;;;4.32;;
41436;SDS011;27178;49.460;10.850;2023-05-07T05:07:01;4.70;;;4.30;;
41436;SDS011;27178;49.460;10.850;2023-05-07T05:09:30;7.00;;;3.97;;
41436;SDS011;27178;49.460;10.850;2023-05-07T05:11:59;4.82;;;4.32;;
41436;SDS011;27178;49.460;10.850;2023-05-07T05:14:28;4.63;;;4.25;;
41436;SDS011;27178;49.460;10.850;2023-05-07T05:16:57;4.43;;;4.03;;
41436;SDS011;27178;49.460;10.850;2023-05-07T05:19:25;5.65;;;4.28;;
41436;SDS011;27178;49.460;10.850;2023-05-07T05:21:53;4.93;;;4.40;;
41436;SDS011;27178;49.460;10.850;2023-05-07T05:24:23;4.93;;;4.35;;
41436;SDS011;27178;49.460;10.850;2023-05-07T05:26:52;4.68;;;4.28;;
41436;SDS011;27178;49.460;10.850;2023-05-07T05:29:21;5.75;;;4.60;;
41436;SDS011;27178;49.460;10.850;2023-05-07T05:31:49;4.57;;;4.18;;
41436;SDS011;27178;49.460;10.850;2023-05-07T05:34:17;5.07;;;4.57;;
41436;SDS011;27178;49.460;10.850;2023-05-07T05:36:46;4.32;;;4.03;;
41436;SDS011;27178;49.460;10.850;2023-05-07T05:39:14;6.55;;;4.30;;
41436;SDS011;27178;49.460;10.850;2023-05-07T05:41:44;5.32;;;4.93;;
41436;SDS011;27178;49.460;10.850;2023-05-07T05:44:12;5.93;;;4.60;;
41436;SDS011;27178;49.460;10.850;2023-05-07T05:46:41;5.45;;;4.95;;
41436;SDS011;27178;49.460;10.850;2023-05-07T05:49:09;4.38;;;3.97;;
41436;SDS011;27178;49.460;10.850;2023-05-07T05:51:37;4.85;;;4.47;;
41436;SDS011;27178;49.460;10.850;2023-05-07T05:54:05;4.97;;;4.57;;
41436;SDS011;27178;49.460;10.850;2023-05-07T05:56:34;4.78;;;4.38;;
41436;SDS011;27178;49.460;10.850;2023-05-07T05:59:03;5.25;;;4.85;;
41436;SDS011;27178;49.460;10.850;2023-05-07T06:01:32;5.15;;;4.70;;
41436;SDS011;27178;49.460;10.850;2023-05-07T06:04:00;5.72;;;4.80;;
41436;SDS011;27178;49.460;10.850;2023-05-07T06:06:29;5.70;;;5.20;;
41436;SDS011;27178;49.460;10.850;2023-05-07T06:08:59;5.50;;;5.10;;
41436;SDS011;27178;49.460;10.850;2023-05-07T06:11:27;5.75;;;5.28;;
41436;SDS011;27178;49.460;10.850;2023-05-07T06:13:55;5.43;;;5.03;;
41436;SDS011;27178;49.460;10.850;2023-05-07T06:16:25;4.78;;;4.32;;
41436;SDS011;27178;49.460;10.850;2023-05-07T06:18:54;5.18;;;4.68;;
41436;SDS011;27178;49.460;10.850;2023-05-07T06:21:22;5.40;;;4.90;;
41436;SDS011;27178;49.460;10.850;2023-05-07T06:23:50;4.78;;;4.47;;
41436;SDS011;27178;49.460;10.850;2023-05-07T06:26:21;5.28;;;4.78;;
41436;SDS011;27178;49.460;10.850;2023-05-07T06:28:49;5.38;;;4.88;;
41436;SDS011;27178;49.460;10.850;2023-05-07T06:31:18;6.65;;;4.95;;
41436;SDS011;27178;49.460;10.850;2023-05-07T06:33:49;5.50;;;5.00;;
41436;SDS011;27178;49.460;10.850;2023-05-07T06:36:17;5.25;;;4.82;;
41436;SDS011;27178;49.460;10.850;2023-05-07T06:38:45;5.22;;;4.82;;
41436;SDS011;27178;49.460;10.850;2023-05-07T06:41:14;4.85;;;4.45;;
41436;SDS011;27178;49.460;10.850;2023-05-07T06:43:43;4.97;;;4.53;;
41436;SDS011;27178;49.460;10.850;2023-05-07T06:46:11;5.03;;;4.68;;
41436;SDS011;27178;49.460;10.850;2023-05-07T06:48:39;4.88;;;4.47;;
41436;SDS011;27178;49.460;10.850;2023-05-07T06:51:09;5.40;;;4.90;;
41436;SDS011;27178;49.460;10.850;2023-05-07T06:53:38;5.15;;;4.65;;
41436;SDS011;27178;49.460;10.850;2023-05-07T06:56:07;4.80;;;4.38;;
41436;SDS011;27178;49.460;10.850;2023-05-07T06:58:35;4.78;;;4.30;;
41436;SDS011;27178;49.460;10.850;2023-05-07T07:01:04;4.90;;;4.50;;
41436;SDS011;27178;49.460;10.850;2023-05-07T07:03:33;4.97;;;4.57;;
41436;SDS011;27178;49.460;10.850;2023-05-07T07:06:01;5.15;;;4.70;;
41436;SDS011;27178;49.460;10.850;2023-05-07T07:08:31;5.45;;;4.95;;
41436;SDS011;27178;49.460;10.850;2023-05-07T07:10:59;4.80;;;4.47;;
41436;SDS011;27178;49.460;10.850;2023-05-07T07:13:27;5.80;;;5.30;;
41436;SDS011;27178;49.460;10.850;2023-05-07T07:15:56;10.43;;;9.35;;
41436;SDS011;27178;49.460;10.850;2023-05-07T07:18:24;9.20;;;8.40;;
41436;SDS011;27178;49.460;10.850;2023-05-07T07:20:53;8.82;;;8.13;;
41436;SDS011;27178;49.460;10.850;2023-05-07T07:23:21;8.60;;;7.80;;
41436;SDS011;27178;49.460;10.850;2023-05-07T07:25:51;7.85;;;7.15;;
41436;SDS011;27178;49.460;10.850;2023-05-07T07:28:20;7.80;;;7.13;;
41436;SDS011;27178;49.460;10.850;2023-05-07T07:30:48;7.03;;;6.43;;
41436;SDS011;27178;49.460;10.850;2023-05-07T07:33:17;6.00;;;5.50;;
41436;SDS011;27178;49.460;10.850;2023-05-07T07:35:45;6.22;;;5.72;;
41436;SDS011;27178;49.460;10.850;2023-05-07T07:38:14;6.57;;;6.07;;
41436;SDS011;27178;49.460;10.850;2023-05-07T07:40:42;5.60;;;5.20;;
41436;SDS011;27178;49.460;10.850;2023-05-07T07:43:14;5.35;;;4.90;;
41436;SDS011;27178;49.460;10.850;2023-05-07T07:45:42;5.97;;;5.47;;
41436;SDS011;27178;49.460;10.850;2023-05-07T07:48:12;5.68;;;5.18;;
41436;SDS011;27178;49.460;10.850;2023-05-07T07:50:41;5.30;;;4.80;;
41436;SDS011;27178;49.460;10.850;2023-05-07T07:53:11;4.63;;;4.25;;
41436;SDS011;27178;49.460;10.850;2023-05-07T07:55:39;5.05;;;4.60;;
41436;SDS011;27178;49.460;10.850;2023-05-07T07:58:07;4.47;;;4.18;;
41436;SDS011;27178;49.460;10.850;2023-05-07T08:00:37;5.15;;;4.75;;
41436;SDS011;27178;49.460;10.850;2023-05-07T08:03:05;4.60;;;4.20;;
41436;SDS011;27178;49.460;10.850;2023-05-07T08:05:38;4.90;;;4.50;;
41436;SDS011;27178;49.460;10.850;2023-05-07T08:08:06;4.63;;;4.22;;
41436;SDS011;27178;49.460;10.850;2023-05-07T08:10:34;4.43;;;4.13;;
41436;SDS011;27178;49.460;10.850;2023-05-07T08:13:05;4.43;;;4.03;;
41436;SDS011;27178;49.460;10.850;2023-05-07T08:15:33;4.25;;;3.95;;
41436;SDS011;27178;49.460;10.850;2023-05-07T08:18:03;4.75;;;4.30;;
41436;SDS011;27178;49.460;10.850;2023-05-07T08:20:31;4.28;;;3.97;;
41436;SDS011;27178;49.460;10.850;2023-05-07T08:23:00;4.35;;;3.95;;
41436;SDS011;27178;49.460;10.850;2023-05-07T08:25:28;4.70;;;4.40;;
41436;SDS011;27178;49.460;10.850;2023-05-07T08:27:57;4.32;;;4.03;;
41436;SDS011;27178;49.460;10.850;2023-05-07T08:30:25;4.50;;;4.10;;
41436;SDS011;27178;49.460;10.850;2023-05-07T08:32:53;5.00;;;4.60;;
41436;SDS011;27178;49.460;10.850;2023-05-07T08:35:23;4.32;;;4.03;;
41436;SDS011;27178;49.460;10.850;2023-05-07T08:37:52;4.70;;;4.20;;
41436;SDS011;27178;49.460;10.850;2023-05-07T08:40:20;4.22;;;3.92;;
41436;SDS011;27178;49.460;10.850;2023-05-07T08:42:52;4.60;;;4.15;;
41436;SDS011;27178;49.460;10.850;2023-05-07T08:45:21;3.65;;;3.35;;
41436;SDS011;27178;49.460;10.850;2023-05-07T08:47:51;5.65;;;3.97;;
41436;SDS011;27178;49.460;10.850;2023-05-07T08:50:25;4.47;;;4.07;;
41436;SDS011;27178;49.460;10.850;2023-05-07T08:52:54;4.60;;;3.92;;
41436;SDS011;27178;49.460;10.850;2023-05-07T08:55:24;4.05;;;3.75;;
41436;SDS011;27178;49.460;10.850;2023-05-07T08:57:52;4.15;;;3.85;;
41436;SDS011;27178;49.460;10.850;2023-05-07T09:00:21;4.15;;;3.75;;
41436;SDS011;27178;49.460;10.850;2023-05-07T09:02:49;4.05;;;3.75;;
41436;SDS011;27178;49.460;10.850;2023-05-07T09:05:18;4.38;;;3.97;;
41436;SDS011;27178;49.460;10.850;2023-05-07T09:07:48;4.53;;;3.90;;
41436;SDS011;27178;49.460;10.850;2023-05-07T09:10:20;3.90;;;3.60;;
41436;SDS011;27178;49.460;10.850;2023-05-07T09:12:49;4.50;;;4.10;;
41436;SDS011;27178;49.460;10.850;2023-05-07T09:15:19;4.78;;;3.75;;
41436;SDS011;27178;49.460;10.850;2023-05-07T09:17:48;4.40;;;4.10;;
41436;SDS011;27178;49.460;10.850;2023-05-07T09:20:16;4.63;;;4.22;;
41436;SDS011;27178;49.460;10.850;2023-05-07T09:22:44;4.40;;;4.10;;
41436;SDS011;27178;49.460;10.850;2023-05-07T09:25:14;3.90;;;3.58;;
41436;SDS011;27178;49.460;10.850;2023-05-07T09:27:43;4.20;;;3.90;;
41436;SDS011;27178;49.460;10.850;2023-05-07T09:30:11;4.43;;;4.13;;
41436;SDS011;27178;49.460;10.850;2023-05-07T09:32:40;3.83;;;3.53;;
41436;SDS011;27178;49.460;10.850;2023-05-07T09:35:14;4.95;;;4.05;;
41436;SDS011;27178;49.460;10.850;2023-05-07T09:37:43;4.47;;;4.13;;
41436;SDS011;27178;49.460;10.850;2023-05-07T09:40:21;3.85;;;3.53;;
41436;SDS011;27178;49.460;10.850;2023-05-07T09:42:50;3.72;;;3.42;;
41436;SDS011;27178;49.460;10.850;2023-05-07T09:45:22;4.35;;;3.95;;
41436;SDS011;27178;49.460;10.850;2023-05-07T09:47:53;3.53;;;3.22;;
41436;SDS011;27178;49.460;10.850;2023-05-07T09:50:25;3.97;;;3.67;;
41436;SDS011;27178;49.460;10.850;2023-05-07T09:52:56;3.67;;;3.38;;
41436;SDS011;27178;49.460;10.850;2023-05-07T09:55:26;3.80;;;3.50;;
41436;SDS011;27178;49.460;10.850;2023-05-07T09:57:55;3.50;;;3.20;;
41436;SDS011;27178;49.460;10.850;2023-05-07T10:00:26;5.10;;;3.60;;
41436;SDS011;27178;49.460;10.850;2023-05-07T10:02:56;3.63;;;3.33;;
41436;SDS011;27178;49.460;10.850;2023-05-07T10:05:25;3.58;;;3.28;;
41436;SDS011;27178;49.460;10.850;2023-05-07T10:07:55;4.00;;;3.70;;
41436;SDS011;27178;49.460;10.850;2023-05-07T10:10:25;4.03;;;3.58;;
41436;SDS011;27178;49.460;10.850;2023-05-07T10:12:55;3.63;;;3.40;;
41436;SDS011;27178;49.460;10.850;2023-05-07T10:15:23;3.40;;;3.13;;
41436;SDS011;27178;49.460;10.850;2023-05-07T10:17:52;3.58;;;3.28;;
41436;SDS011;27178;49.460;10.850;2023-05-07T10:20:22;3.58;;;3.25;;
41436;SDS011;27178;49.460;10.850;2023-05-07T10:22:51;3.35;;;3.15;;
41436;SDS011;27178;49.460;10.850;2023-05-07T10:25:25;4.88;;;3.40;;
41436;SDS011;27178;49.460;10.850;2023-05-07T10:27:59;3.20;;;3.00;;
41436;SDS011;27178;49.460;10.850;2023-05-07T10:30:31;2.92;;;2.72;;
41436;SDS011;27178;49.460;10.850;2023-05-07T10:33:06;3.45;;;3.15;;
41436;SDS011;27178;49.460;10.850;2023-05-07T10:35:39;3.22;;;3.03;;
41436;SDS011;27178;49.460;10.850;2023-05-07T10:38:10;3.78;;;3.22;;
41436;SDS011;27178;49.460;10.850;2023-05-07T10:40:40;3.38;;;3.08;;
41436;SDS011;27178;49.460;10.850;2023-05-07T10:43:08;2.83;;;2.63;;
41436;SDS011;27178;49.460;10.850;2023-05-07T10:45:36;3.80;;;2.47;;
41436;SDS011;27178;49.460;10.850;2023-05-07T10:48:05;3.00;;;2.80;;
41436;SDS011;27178;49.460;10.850;2023-05-07T10:50:41;3.63;;;2.70;;
41436;SDS011;27178;49.460;10.850;2023-05-07T10:53:20;2.85;;;2.65;;
41436;SDS011;27178;49.460;10.850;2023-05-07T10:58:52;2.67;;;2.47;;
41436;SDS011;27178;49.460;10.850;2023-05-07T11:04:19;2.50;;;2.20;;
41436;SDS011;27178;49.460;10.850;2023-05-07T11:09:56;2.42;;;2.22;;
41436;SDS011;27178;49.460;10.850;2023-05-07T11:12:48;2.47;;;2.08;;
41436;SDS011;27178;49.460;10.850;2023-05-07T11:15:37;2.17;;;2.08;;
41436;SDS011;27178;49.460;10.850;2023-05-07T11:18:11;2.17;;;2.08;;
41436;SDS011;27178;49.460;10.850;2023-05-07T11:20:47;3.25;;;2.72;;
41436;SDS011;27178;49.460;10.850;2023-05-07T11:26:29;2.33;;;2.13;;
41436;SDS011;27178;49.460;10.850;2023-05-07T11:28:59;2.47;;;2.28;;
41436;SDS011;27178;49.460;10.850;2023-05-07T11:31:28;2.75;;;2.50;;
41436;SDS011;27178;49.460;10.850;2023-05-07T11:33:57;2.38;;;2.17;;
41436;SDS011;27178;49.460;10.850;2023-05-07T11:36:25;2.17;;;2.08;;
41436;SDS011;27178;49.460;10.850;2023-05-07T11:38:59;2.90;;;2.47;;
41436;SDS011;27178;49.460;10.850;2023-05-07T11:41:34;2.25;;;2.15;;
41436;SDS011;27178;49.460;10.850;2023-05-07T11:44:05;2.53;;;2.33;;
41436;SDS011;27178;49.460;10.850;2023-05-07T11:46:33;2.67;;;2.40;;
41436;SDS011;27178;49.460;10.850;2023-05-07T11:49:01;2.55;;;2.35;;
41436;SDS011;27178;49.460;10.850;2023-05-07T11:51:30;2.38;;;2.17;;
41436;SDS011;27178;49.460;10.850;2023-05-07T11:53:58;3.28;;;2.60;;
41436;SDS011;27178;49.460;10.850;2023-05-07T11:56:27;3.63;;;2.40;;
41436;SDS011;27178;49.460;10.850;2023-05-07T11:58:55;2.35;;;2.13;;
41436;SDS011;27178;49.460;10.850;2023-05-07T12:01:25;3.88;;;2.20;;
41436;SDS011;27178;49.460;10.850;2023-05-07T12:03:53;2.00;;;1.90;;
41436;SDS011;27178;49.460;10.850;2023-05-07T12:06:22;2.38;;;2.17;;
41436;SDS011;27178;49.460;10.850;2023-05-07T12:08:50;3.30;;;2.30;;
41436;SDS011;27178;49.460;10.850;2023-05-07T12:11:21;2.30;;;2.10;;
41436;SDS011;27178;49.460;10.850;2023-05-07T12:13:51;2.60;;;2.13;;
41436;SDS011;27178;49.460;10.850;2023-05-07T12:16:26;2.90;;;2.40;;
41436;SDS011;27178;49.460;10.850;2023-05-07T12:18:55;6.38;;;5.78;;
41436;SDS011;27178;49.460;10.850;2023-05-07T12:21:25;8.77;;;7.97;;
41436;SDS011;27178;49.460;10.850;2023-05-07T12:23:53;5.22;;;4.72;;
41436;SDS011;27178;49.460;10.850;2023-05-07T12:26:22;3.35;;;3.15;;
41436;SDS011;27178;49.460;10.850;2023-05-07T12:28:50;3.85;;;3.55;;
41436;SDS011;27178;49.460;10.850;2023-05-07T12:31:18;4.20;;;3.80;;
41436;SDS011;27178;49.460;10.850;2023-05-07T12:33:48;3.63;;;3.33;;
41436;SDS011;27178;49.460;10.850;2023-05-07T12:36:16;3.90;;;3.60;;
41436;SDS011;27178;49.460;10.850;2023-05-07T12:38:45;3.53;;;3.10;;
41436;SDS011;27178;49.460;10.850;2023-05-07T12:41:17;2.80;;;2.60;;
41436;SDS011;27178;49.460;10.850;2023-05-07T12:43:45;2.42;;;2.33;;
41436;SDS011;27178;49.460;10.850;2023-05-07T12:46:14;2.70;;;2.50;;
41436;SDS011;27178;49.460;10.850;2023-05-07T12:48:45;2.67;;;2.47;;
41436;SDS011;27178;49.460;10.850;2023-05-07T12:51:14;2.60;;;2.40;;
41436;SDS011;27178;49.460;10.850;2023-05-07T12:53:43;2.65;;;2.45;;
41436;SDS011;27178;49.460;10.850;2023-05-07T12:56:11;2.47;;;2.28;;
41436;SDS011;27178;49.460;10.850;2023-05-07T12:58:43;2.83;;;2.53;;
41436;SDS011;27178;49.460;10.850;2023-05-07T13:01:12;3.08;;;2.38;;
41436;SDS011;27178;49.460;10.850;2023-05-07T13:03:42;2.60;;;2.40;;
41436;SDS011;27178;49.460;10.850;2023-05-07T13:06:18;2.40;;;2.20;;
41436;SDS011;27178;49.460;10.850;2023-05-07T13:08:46;2.00;;;1.85;;
41436;SDS011;27178;49.460;10.850;2023-05-07T13:11:15;2.53;;;2.33;;
41436;SDS011;27178;49.460;10.850;2023-05-07T13:13:44;2.50;;;2.30;;
41436;SDS011;27178;49.460;10.850;2023-05-07T13:16:12;2.55;;;2.35;;
41436;SDS011;27178;49.460;10.850;2023-05-07T13:18:41;2.03;;;1.92;;
41436;SDS011;27178;49.460;10.850;2023-05-07T13:21:10;2.10;;;2.00;;
41436;SDS011;27178;49.460;10.850;2023-05-07T13:23:41;2.67;;;2.45;;
41436;SDS011;27178;49.460;10.850;2023-05-07T13:26:09;3.60;;;2.78;;
41436;SDS011;27178;49.460;10.850;2023-05-07T13:28:52;2.75;;;2.53;;
41436;SDS011;27178;49.460;10.850;2023-05-07T13:31:20;2.17;;;2.00;;
41436;SDS011;27178;49.460;10.850;2023-05-07T13:33:49;2.75;;;2.40;;
41436;SDS011;27178;49.460;10.850;2023-05-07T13:36:17;3.65;;;2.63;;
41436;SDS011;27178;49.460;10.850;2023-05-07T13:38:46;2.13;;;2.03;;
41436;SDS011;27178;49.460;10.850;2023-05-07T13:41:16;2.33;;;2.13;;
41436;SDS011;27178;49.460;10.850;2023-05-07T13:43:44;2.30;;;2.17;;
41436;SDS011;27178;49.460;10.850;2023-05-07T13:46:12;2.42;;;2.22;;
41436;SDS011;27178;49.460;10.850;2023-05-07T13:48:40;4.50;;;2.53;;
41436;SDS011;27178;49.460;10.850;2023-05-07T13:51:09;2.80;;;2.60;;
41436;SDS011;27178;49.460;10.850;2023-05-07T13:53:37;2.20;;;2.10;;
41436;SDS011;27178;49.460;10.850;2023-05-07T13:56:07;2.85;;;2.60;;
41436;SDS011;27178;49.460;10.850;2023-05-07T13:58:36;2.47;;;2.28;;
41436;SDS011;27178;49.460;10.850;2023-05-07T14:01:24;2.50;;;2.30;;
41436;SDS011;27178;49.460;10.850;2023-05-07T14:03:52;2.50;;;2.30;;
41436;SDS011;27178;49.460;10.850;2023-05-07T14:06:21;2.22;;;2.03;;
41436;SDS011;27178;49.460;10.850;2023-05-07T14:08:49;2.30;;;2.15;;
41436;SDS011;27178;49.460;10.850;2023-05-07T14:11:18;2.65;;;2.03;;
41436;SDS011;27178;49.460;10.850;2023-05-07T14:13:47;2.15;;;2.05;;
41436;SDS011;27178;49.460;10.850;2023-05-07T14:16:16;2.40;;;2.20;;
41436;SDS011;27178;49.460;10.850;2023-05-07T14:18:44;2.63;;;2.00;;
41436;SDS011;27178;49.460;10.850;2023-05-07T14:21:12;5.25;;;2.13;;
41436;SDS011;27178;49.460;10.850;2023-05-07T14:23:41;2.28;;;2.08;;
41436;SDS011;27178;49.460;10.850;2023-05-07T14:26:09;2.10;;;2.00;;
41436;SDS011;27178;49.460;10.850;2023-05-07T14:28:39;2.33;;;2.00;;
41436;SDS011;27178;49.460;10.850;2023-05-07T14:31:12;2.38;;;1.80;;
41436;SDS011;27178;49.460;10.850;2023-05-07T14:33:43;2.67;;;2.10;;
41436;SDS011;27178;49.460;10.850;2023-05-07T14:36:11;3.30;;;2.13;;
41436;SDS011;27178;49.460;10.850;2023-05-07T14:38:40;2.33;;;2.08;;
41436;SDS011;27178;49.460;10.850;2023-05-07T14:41:08;2.17;;;2.00;;
41436;SDS011;27178;49.460;10.850;2023-05-07T14:43:36;2.20;;;1.70;;
41436;SDS011;27178;49.460;10.850;2023-05-07T14:46:06;3.05;;;2.20;;
41436;SDS011;27178;49.460;10.850;2023-05-07T14:48:35;2.05;;;1.95;;
41436;SDS011;27178;49.460;10.850;2023-05-07T14:51:03;2.53;;;2.33;;
41436;SDS011;27178;49.460;10.850;2023-05-07T14:53:33;2.20;;;2.00;;
41436;SDS011;27178;49.460;10.850;2023-05-07T14:56:01;2.00;;;1.90;;
41436;SDS011;27178;49.460;10.850;2023-05-07T14:58:30;1.92;;;1.83;;